Time;durP1;ratioP1;P1;durP2;ratioP2;P2;SDS_P1;SDS_P2;PMS_P1;PMS_P2;Temp;Humidity;BMP_temperature;BMP_pressure;BME280_temperature;BME280_humidity;BME280_pressure;Samples;Min_cycle;Max_cycle;Signal;HPM_P1;HPM_P2
2022/08/11 00:04:20;;;;;;;;;;;;;;;22.30;37.92;96099.31;10332629;28;1872;-60
2022/08/11 00:09:21;;;;;;;;;;;;;;;22.29;37.80;96098.53;10333989;28;1884;-60
2022/08/11 00:14:24;;;;;;;;;;;;;;;22.29;38.03;96103.81;10339234;28;1865;-58
2022/08/11 00:19:28;;;;;;;;;;;;;;;22.26;37.72;96109.63;10337903;28;2003;-60
2022/08/11 00:24:32;;;;;;;;;;;;;;;22.26;37.80;96109.63;10333203;28;1900;-60
2022/08/11 00:29:32;;;;;;;;;;;;;;;22.28;37.85;96106.72;10339124;28;1804;-60
2022/08/11 00:34:33;;;;;;;;;;;;;;;22.23;37.79;96110.22;10338880;28;1863;-60
2022/08/11 00:39:34;;;;;;;;;;;;;;;22.22;38.07;96111.25;10335784;28;1954;-60
2022/08/11 00:44:40;;;;;;;;;;;;;;;22.16;38.25;96109.72;10334503;28;1994;-60
2022/08/11 00:49:46;;;;;;;;;;;;;;;22.17;38.06;96100.75;10336224;28;1881;-60
2022/08/11 00:55:02;;;;;;;;;;;;;;;22.16;38.17;96112.34;10329865;28;1906;-60
2022/08/11 01:00:15;;;;;;;;;;;;;;;22.20;38.13;96110.75;10334525;28;1971;-60
2022/08/11 01:05:35;;;;;;;;;;;;;;;22.24;38.34;96103.84;10335613;28;2121;-60
2022/08/11 01:11:00;;;;;;;;;;;;;;;22.28;38.23;96096.16;10345232;28;1916;-60
2022/08/11 01:16:08;;;;;;;;;;;;;;;22.31;38.32;96091.13;10348913;28;2087;-60
2022/08/11 01:21:19;;;;;;;;;;;;;;;22.32;38.16;96091.91;10351194;28;1989;-60
2022/08/11 01:26:42;;;;;;;;;;;;;;;22.32;38.41;96097.19;10346547;28;1958;-60
2022/08/11 01:32:03;;;;;;;;;;;;;;;22.34;38.57;96101.13;10343752;28;1976;-60
2022/08/11 01:37:31;;;;;;;;;;;;;;;22.36;38.30;96098.22;10346082;28;2024;-60
2022/08/11 01:48:43;;;;;;;;;;;;;;;22.31;38.44;96088.50;10347628;28;1959;-60
2022/08/11 01:53:49;;;;;;;;;;;;;;;22.30;38.80;96086.91;10353070;28;1975;-60
2022/08/11 01:59:08;;;;;;;;;;;;;;;22.31;38.56;96091.13;10352682;28;1989;-60
2022/08/11 02:04:12;;;;;;;;;;;;;;;22.31;38.74;96080.56;10347804;28;1957;-60
2022/08/11 02:09:15;;;;;;;;;;;;;;;22.30;38.68;96083.47;10349201;28;1964;-60
2022/08/11 02:14:30;;;;;;;;;;;;;;;22.25;38.75;96080.88;10342856;28;1971;-60
2022/08/11 02:25:02;;;;;;;;;;;;;;;22.21;38.99;96082.50;10340367;28;1905;-60
2022/08/11 02:30:06;;;;;;;;;;;;;;;22.19;38.93;96079.34;10345372;28;2084;-61
2022/08/11 02:35:18;;;;;;;;;;;;;;;22.16;38.95;96066.69;10337879;28;1921;-61
2022/08/11 02:40:19;;;;;;;;;;;;;;;22.16;39.03;96070.09;10327790;28;2040;-60
2022/08/11 02:45:23;;;;;;;;;;;;;;;22.14;38.97;96079.38;10339665;28;1906;-60
2022/08/11 02:50:24;;;;;;;;;;;;;;;22.15;38.93;96076.47;10341540;28;2004;-60
2022/08/11 02:55:24;;;;;;;;;;;;;;;22.15;39.05;96067.75;10348133;28;1998;-60
2022/08/11 03:00:25;;;;;;;;;;;;;;;22.12;39.36;96068.28;10343516;28;1968;-60
2022/08/11 03:05:37;;;;;;;;;;;;;;;22.16;39.20;96074.59;10340911;28;1912;-60
2022/08/11 03:16:43;;;;;;;;;;;;;;;22.16;39.24;96067.47;10341571;28;2023;-60
2022/08/11 03:22:06;;;;;;;;;;;;;;;22.21;39.39;96083.28;10389425;28;2036;-60
2022/08/11 03:27:09;;;;;;;;;;;;;;;22.21;39.18;96072.72;10339571;28;1966;-60
2022/08/11 03:32:18;;;;;;;;;;;;;;;22.22;39.22;96069.00;10335717;28;1938;-60
2022/08/11 03:37:50;;;;;;;;;;;;;;;22.22;39.35;96069.00;10340216;28;1939;-61
2022/08/11 03:42:54;;;;;;;;;;;;;;;22.20;39.64;96071.13;10338531;28;2091;-60
2022/08/11 03:48:05;;;;;;;;;;;;;;;22.22;39.41;96073.50;10324649;28;1959;-60
2022/08/11 03:53:13;;;;;;;;;;;;;;;22.19;39.64;96077.50;10341439;28;1824;-60
2022/08/11 03:58:17;;;;;;;;;;;;;;;22.20;39.33;96075.63;10340904;28;1856;-60
2022/08/11 04:03:36;;;;;;;;;;;;;;;22.14;39.31;96074.88;10340918;28;1922;-60
2022/08/11 04:08:52;;;;;;;;;;;;;;;22.16;39.54;96071.97;10335319;28;1939;-60
2022/08/11 04:13:53;;;;;;;;;;;;;;;22.17;39.30;96065.63;10340767;28;1908;-60
2022/08/11 04:19:00;;;;;;;;;;;;;;;22.16;39.40;96069.31;10343941;28;1927;-60
2022/08/11 04:24:18;;;;;;;;;;;;;;;22.15;39.45;96062.47;10342250;28;1904;-60
2022/08/11 04:29:37;;;;;;;;;;;;;;;22.14;39.69;96066.97;10341117;28;1962;-60
2022/08/11 04:35:04;;;;;;;;;;;;;;;22.11;39.42;96070.16;10342588;28;1974;-60
2022/08/11 04:40:10;;;;;;;;;;;;;;;22.08;39.62;96068.06;10334491;28;1968;-61
2022/08/11 04:45:23;;;;;;;;;;;;;;;22.06;39.28;96066.75;10335146;28;1967;-57
2022/08/11 05:01:40;;;;;;;;;;;;;;;22.01;39.83;96082.66;10334981;28;1954;-60
2022/08/11 05:06:52;;;;;;;;;;;;;;;22.05;39.93;96084.44;10342508;28;1943;-60
2022/08/11 05:12:12;;;;;;;;;;;;;;;22.08;39.77;96081.25;10320640;28;1987;-60
2022/08/11 06:00:18;;;;;;;;;;;;;;;21.99;40.45;96088.16;10322567;28;1982;-60
2022/08/11 06:05:19;;;;;;;;;;;;;;;22.01;40.32;96086.03;10323987;28;1914;-61
2022/08/11 06:10:28;;;;;;;;;;;;;;;21.98;40.32;96081.34;10326449;28;1980;-60
2022/08/11 06:15:31;;;;;;;;;;;;;;;21.93;40.28;96083.22;10363139;28;1995;-60
2022/08/11 06:20:36;;;;;;;;;;;;;;;21.92;40.45;96079.00;10339086;28;1975;-60
2022/08/11 06:25:37;;;;;;;;;;;;;;;21.91;40.82;96082.72;10342127;28;1956;-60
2022/08/11 06:30:39;;;;;;;;;;;;;;;21.92;41.34;96082.44;10340841;28;1950;-60
2022/08/11 06:35:51;;;;;;;;;;;;;;;21.99;41.20;96103.25;10334871;28;1930;-60
2022/08/11 06:46:12;;;;;;;;;;;;;;;22.08;41.20;96097.09;10334648;28;1951;-60
2022/08/11 06:51:12;;;;;;;;;;;;;;;22.12;41.24;96094.69;10361107;28;1939;-59
2022/08/11 07:01:35;;;;;;;;;;;;;;;22.15;40.88;96102.88;10334828;28;2158;-60
2022/08/11 07:17:42;;;;;;;;;;;;;;;22.31;41.94;96091.13;10338016;28;1899;-59
2022/08/11 07:28:54;;;;;;;;;;;;;;;22.31;40.98;96093.78;10334972;28;1910;-60
2022/08/11 07:29:10;;;;;;;;;;;;;;;22.30;41.23;96089.53;10327576;28;1880;-60
2022/08/11 07:33:39;;;;;;;;;;;;;;;22.30;40.81;96088.75;10346708;28;1916;-60
2022/08/11 07:38:50;;;;;;;;;;;;;;;22.28;40.34;96081.09;10339212;28;1975;-60
2022/08/11 07:44:08;;;;;;;;;;;;;;;22.28;40.54;96078.47;10333602;28;1952;-60
2022/08/11 07:54:28;;;;;;;;;;;;;;;22.29;40.50;96077.41;10331214;28;1868;-59
2022/08/11 08:20:46;;;;;;;;;;;;;;;22.37;40.47;96071.53;10336928;28;1959;-60
2022/08/11 08:25:46;;;;;;;;;;;;;;;22.44;40.30;96079.91;10336899;28;1997;-59
2022/08/11 08:30:51;;;;;;;;;;;;;;;22.45;40.40;96086.78;10339876;28;2014;-60
2022/08/11 08:36:10;;;;;;;;;;;;;;;22.47;40.49;96087.28;10313174;28;2001;-58
2022/08/11 08:41:10;;;;;;;;;;;;;;;22.50;40.67;96086.72;10352882;28;1942;-57
2022/08/11 08:46:10;;;;;;;;;;;;;;;22.57;40.74;96087.19;10351247;28;1921;-57
2022/08/11 08:56:32;;;;;;;;;;;;;;;22.62;40.71;96083.75;10330730;28;1973;-57
2022/08/11 09:01:35;;;;;;;;;;;;;;;22.64;40.60;96077.13;10323188;28;1948;-57
2022/08/11 09:06:38;;;;;;;;;;;;;;;22.68;40.70;96085.28;10314804;28;1991;-57
2022/08/11 09:11:54;;;;;;;;;;;;;;;22.72;40.72;96074.94;10316710;28;1907;-56
2022/08/11 09:16:54;;;;;;;;;;;;;;;22.75;40.48;96085.72;10339988;28;1925;-54
2022/08/11 09:27:14;;;;;;;;;;;;;;;22.81;40.58;96083.84;10333047;28;1928;-58
2022/08/11 09:32:18;;;;;;;;;;;;;;;22.83;40.60;96079.06;10337606;28;1931;-56
2022/08/11 09:48:00;;;;;;;;;;;;;;;22.91;40.86;96079.25;10341846;28;1934;-57
2022/08/11 09:53:05;;;;;;;;;;;;;;;22.96;40.72;96081.03;10336835;28;1939;-57
2022/08/11 09:58:15;;;;;;;;;;;;;;;22.99;40.74;96085.78;10337545;28;1994;-56
2022/08/11 10:03:16;;;;;;;;;;;;;;;23.05;40.88;96068.78;10325840;28;1925;-55
2022/08/11 10:08:20;;;;;;;;;;;;;;;23.14;41.18;96075.03;10341151;28;1931;-59
2022/08/11 10:13:21;;;;;;;;;;;;;;;23.20;41.17;96063.34;10366895;28;1987;-55
2022/08/11 10:18:57;;;;;;;;;;;;;;;23.21;41.08;96072.84;10339798;28;2019;-57
2022/08/11 10:34:36;;;;;;;;;;;;;;;23.24;40.78;96059.06;10342828;28;1965;-58
2022/08/11 10:39:36;;;;;;;;;;;;;;;23.22;40.71;96053.25;10334525;28;1948;-58
2022/08/11 10:44:38;;;;;;;;;;;;;;;23.22;40.50;96047.97;10347766;28;2300;-58
2022/08/11 10:49:39;;;;;;;;;;;;;;;23.24;40.33;96040.53;10333247;28;1939;-59
2022/08/11 10:59:58;;;;;;;;;;;;;;;23.22;39.68;96042.69;10352931;28;1890;-58
2022/08/11 11:05:08;;;;;;;;;;;;;;;23.22;39.72;96042.69;10337422;28;1788;-58
2022/08/11 11:10:08;;;;;;;;;;;;;;;23.25;39.72;96032.31;10329693;28;1805;-58
2022/08/11 11:20:32;;;;;;;;;;;;;;;23.27;39.67;96037.31;10328804;28;1977;-55
2022/08/11 11:25:43;;;;;;;;;;;;;;;23.29;39.56;96032.53;10339159;28;1906;-58
2022/08/11 11:31:02;;;;;;;;;;;;;;;23.30;39.34;96028.81;10334471;28;1831;-58
2022/08/11 11:36:14;;;;;;;;;;;;;;;23.30;39.15;96019.03;10335386;28;1800;-59
2022/08/11 11:41:23;;;;;;;;;;;;;;;23.31;39.55;96015.31;10329172;28;1902;-57
2022/08/11 11:46:25;;;;;;;;;;;;;;;23.32;39.35;96005.56;10331498;28;1840;-57
2022/08/11 11:51:25;;;;;;;;;;;;;;;23.35;39.41;96018.19;10333991;28;1833;-57
2022/08/11 11:56:25;;;;;;;;;;;;;;;23.36;39.13;96006.56;10333812;28;1822;-58
2022/08/11 12:01:26;;;;;;;;;;;;;;;23.38;39.18;96015.00;10328696;28;1985;-56
2022/08/11 12:06:26;;;;;;;;;;;;;;;23.40;39.76;96016.28;10332967;28;1797;-58
2022/08/11 12:16:46;;;;;;;;;;;;;;;23.47;39.66;95994.78;10334686;28;1894;-58
2022/08/11 12:27:21;;;;;;;;;;;;;;;23.47;39.24;95981.56;10323679;28;1947;-58
2022/08/11 12:32:23;;;;;;;;;;;;;;;23.49;39.27;95975.97;10331063;28;1808;-58
2022/08/11 12:37:42;;;;;;;;;;;;;;;23.51;39.46;95976.47;10332128;28;1837;-57
2022/08/11 12:53:26;;;;;;;;;;;;;;;23.52;39.12;95962.16;10327981;28;1506;-58
2022/08/11 12:58:26;;;;;;;;;;;;;;;23.54;39.34;95967.94;10334573;28;2228;-57
2022/08/11 13:08:47;;;;;;;;;;;;;;;23.55;39.13;95946.50;10335202;28;1852;-57
2022/08/11 13:13:48;;;;;;;;;;;;;;;23.59;39.27;95954.66;10333012;28;1816;-58
2022/08/11 13:18:49;;;;;;;;;;;;;;;23.57;39.18;95960.22;10336687;28;1811;-58
2022/08/11 13:23:53;;;;;;;;;;;;;;;23.60;39.07;95959.63;10332326;28;2103;-58
2022/08/11 13:28:54;;;;;;;;;;;;;;;23.60;39.01;95950.91;10333740;28;3226;-59
2022/08/11 13:33:54;;;;;;;;;;;;;;;23.63;38.95;95958.28;10331109;28;1896;-58
2022/08/11 13:38:57;;;;;;;;;;;;;;;23.63;38.79;95948.50;10312184;28;1841;-57
2022/08/11 13:43:57;;;;;;;;;;;;;;;23.62;38.75;95943.50;10330023;28;1953;-56
2022/08/11 13:48:57;;;;;;;;;;;;;;;23.65;38.80;95941.06;10357822;28;1922;-57
2022/08/11 13:54:01;;;;;;;;;;;;;;;23.63;38.97;95931.81;10324971;28;1857;-58
2022/08/11 13:59:01;;;;;;;;;;;;;;;23.63;38.72;95931.81;10329316;28;1912;-57
2022/08/11 14:04:09;;;;;;;;;;;;;;;23.63;38.79;95931.81;10334307;28;1883;-58
2022/08/11 14:09:09;;;;;;;;;;;;;;;23.63;38.62;95927.31;10333141;28;1850;-57
2022/08/11 14:14:09;;;;;;;;;;;;;;;23.62;38.50;95925.72;10338380;28;1864;-58
2022/08/11 14:19:11;;;;;;;;;;;;;;;23.63;38.22;95924.69;10337729;28;1826;-58
2022/08/11 14:24:11;;;;;;;;;;;;;;;23.62;37.93;95923.09;10361690;28;4319;-58
2022/08/11 14:29:13;;;;;;;;;;;;;;;23.62;38.03;95920.44;10341056;28;1816;-57
2022/08/11 14:34:13;;;;;;;;;;;;;;;23.64;38.02;95926.22;10336733;28;1881;-58
2022/08/11 14:39:16;;;;;;;;;;;;;;;23.69;37.97;95920.09;10338535;28;1865;-57
2022/08/11 14:49:36;;;;;;;;;;;;;;;23.67;38.01;95920.38;10334131;28;1797;-58
2022/08/11 14:59:57;;;;;;;;;;;;;;;23.68;37.85;95923.81;10337726;28;1969;-59
2022/08/11 15:04:58;;;;;;;;;;;;;;;23.67;38.00;95922.22;10320705;28;1832;-58
2022/08/11 15:09:59;;;;;;;;;;;;;;;23.66;37.88;95910.84;10321623;28;1851;-58
2022/08/11 15:24:18;;;;;;;;;;;;;;;23.67;38.11;95916.94;10337600;28;1911;-58
2022/08/11 15:25:42;;;;;;;;;;;;;;;23.68;37.85;95902.66;10337470;28;1907;-59
2022/08/11 15:46:47;;;;;;;;;;;;;;;23.74;38.98;95891.66;10325904;28;1589;-57
2022/08/11 15:51:49;;;;;;;;;;;;;;;23.76;39.30;95892.16;10339515;28;1450;-57
2022/08/11 15:56:50;;;;;;;;;;;;;;;23.76;39.27;95888.75;10348014;28;1519;-56
2022/08/11 16:07:31;;;;;;;;;;;;;;;23.75;38.77;95887.16;10242676;28;1733;-58
2022/08/11 16:12:34;;;;;;;;;;;;;;;23.75;38.50;95885.31;10324193;28;1471;-58
2022/08/11 16:17:44;;;;;;;;;;;;;;;23.73;38.52;95876.06;10319558;28;1524;-58
2022/08/11 16:22:46;;;;;;;;;;;;;;;23.72;38.05;95880.56;10339123;28;1902;-58
2022/08/11 16:27:51;;;;;;;;;;;;;;;23.73;38.07;95884.81;10342630;28;1459;-58
2022/08/11 16:32:51;;;;;;;;;;;;;;;23.72;37.90;95877.94;10366490;28;1460;-58
2022/08/11 16:48:34;;;;;;;;;;;;;;;23.74;38.20;95873.13;10341914;28;1854;-56
2022/08/11 16:53:37;;;;;;;;;;;;;;;23.73;38.04;95866.28;10326266;28;1490;-57
2022/08/11 17:14:39;;;;;;;;;;;;;;;23.72;37.56;95867.34;10322356;28;1765;-54
2022/08/11 17:19:59;;;;;;;;;;;;;;;23.75;37.46;95868.63;10337751;28;1894;-53
2022/08/11 17:24:59;;;;;;;;;;;;;;;23.75;37.73;95869.44;10341670;28;1519;-54
2022/08/11 17:30:01;;;;;;;;;;;;;;;23.76;37.80;95864.94;10334501;28;1481;-58
2022/08/11 17:35:29;;;;;;;;;;;;;;;23.76;37.92;95872.88;10341746;28;1542;-57
2022/08/11 17:40:31;;;;;;;;;;;;;;;23.79;38.25;95870.41;10351076;28;1879;-56
2022/08/11 17:50:54;;;;;;;;;;;;;;;23.83;38.80;95873.25;10347314;28;1514;-57
2022/08/11 18:01:14;;;;;;;;;;;;;;;23.88;38.88;95887.22;10344144;28;1895;-57
2022/08/11 18:06:16;;;;;;;;;;;;;;;23.89;39.11;95885.31;10343497;28;1642;-57
